createdAt,value
2022-10-13T00:01:19.659Z,58.91
2022-10-13T00:04:07.386Z,60.87
2022-10-13T00:06:55.271Z,65.29
2022-10-13T00:09:46.728Z,64.82
2022-10-13T00:12:38.755Z,63.57
2022-10-13T00:15:28.873Z,61.64
2022-10-13T00:18:16.967Z,59.86
2022-10-13T00:21:10.697Z,57.90
2022-10-13T00:23:58.417Z,58.25
2022-10-13T00:26:46.311Z,62.04
2022-10-13T00:29:39.738Z,64.89
2022-10-13T00:32:27.328Z,64.01
2022-10-13T00:35:15.338Z,62.31
2022-10-13T00:38:02.993Z,60.48
2022-10-13T00:40:55.804Z,57.45
2022-10-13T00:43:57.869Z,58.77
2022-10-13T00:46:45.751Z,60.93
2022-10-13T00:49:33.776Z,64.01
2022-10-13T00:52:23.342Z,65.43
2022-10-13T00:55:13.910Z,64.18
2022-10-13T00:58:05.553Z,62.20
2022-10-13T01:00:53.854Z,60.51
2022-10-13T01:03:41.911Z,57.69
2022-10-13T01:06:30.437Z,56.59
2022-10-13T01:09:18.322Z,59.20
2022-10-13T01:12:26.665Z,60.61
2022-10-13T01:15:32.504Z,65.13
2022-10-13T01:18:41.860Z,65.94
2022-10-13T01:21:55.525Z,63.30
2022-10-13T01:24:58.434Z,60.85
2022-10-13T01:27:59.162Z,58.31
2022-10-13T01:31:32.956Z,57.05
2022-10-13T01:34:34.563Z,59.81
2022-10-13T01:37:34.650Z,63.28
2022-10-13T01:40:30.535Z,64.89
2022-10-13T01:43:36.938Z,62.57
2022-10-13T01:46:31.024Z,58.87
2022-10-13T01:49:24.581Z,59.30
2022-10-13T01:52:17.631Z,60.45
2022-10-13T01:55:12.061Z,65.66
2022-10-13T01:57:59.550Z,66.26
2022-10-13T02:01:15.231Z,63.81
2022-10-13T02:04:26.238Z,62.02
2022-10-13T02:07:31.658Z,58.55
2022-10-13T02:10:45.623Z,57.99
2022-10-13T02:13:36.819Z,59.69
2022-10-13T02:16:39.471Z,63.38
2022-10-13T02:19:28.894Z,65.64
2022-10-13T02:22:17.891Z,63.17
2022-10-13T02:25:08.057Z,61.09
2022-10-13T02:27:59.906Z,58.49
2022-10-13T02:30:51.907Z,57.96
2022-10-13T02:33:39.519Z,58.77
2022-10-13T02:36:27.121Z,60.43
2022-10-13T02:39:15.622Z,64.31
2022-10-13T02:42:03.615Z,66.25
2022-10-13T02:44:51.243Z,64.46
2022-10-13T02:47:39.251Z,62.41
2022-10-13T02:50:27.736Z,60.42
2022-10-13T02:53:17.359Z,58.97
2022-10-13T02:56:05.996Z,56.66
2022-10-13T02:58:55.337Z,58.44
2022-10-13T03:01:44.735Z,59.80
2022-10-13T03:04:32.303Z,62.84
2022-10-13T03:07:20.123Z,65.33
2022-10-13T03:10:08.300Z,63.89
2022-10-13T03:12:56.242Z,61.51
2022-10-13T03:15:43.861Z,60.57
2022-10-13T03:18:32.061Z,57.97
2022-10-13T03:21:20.495Z,56.51
2022-10-13T03:24:08.378Z,58.17
2022-10-13T03:26:55.823Z,61.46
2022-10-13T03:29:43.882Z,64.35
2022-10-13T03:32:31.924Z,63.90
2022-10-13T03:35:19.714Z,62.26
2022-10-13T03:38:07.842Z,60.46
2022-10-13T03:40:55.691Z,57.17
2022-10-13T03:43:45.509Z,55.82
2022-10-13T03:46:33.157Z,57.20
2022-10-13T03:49:21.154Z,58.39
2022-10-13T03:52:09.159Z,60.72
2022-10-13T03:54:56.880Z,64.66
2022-10-13T03:57:44.672Z,65.04
2022-10-13T04:00:32.567Z,62.70
2022-10-13T04:03:20.667Z,61.43
2022-10-13T04:06:08.462Z,58.27
2022-10-13T04:08:56.801Z,57.10
2022-10-13T04:11:44.375Z,58.19
2022-10-13T04:14:31.750Z,59.46
2022-10-13T04:17:22.973Z,63.52
2022-10-13T04:20:12.278Z,65.97
2022-10-13T04:23:00.199Z,64.47
2022-10-13T04:25:48.111Z,62.71
2022-10-13T04:28:36.168Z,60.30
2022-10-13T04:31:25.396Z,57.88
2022-10-13T04:34:12.852Z,56.70
2022-10-13T04:37:00.858Z,58.15
2022-10-13T04:39:48.730Z,59.42
2022-10-13T04:42:36.526Z,63.17
2022-10-13T04:45:24.254Z,64.89
2022-10-13T04:48:12.157Z,64.06
2022-10-13T04:51:09.141Z,61.10
2022-10-13T04:53:59.455Z,59.78
2022-10-13T04:56:47.283Z,56.70
2022-10-13T04:59:34.934Z,57.12
2022-10-13T05:02:22.865Z,59.08
2022-10-13T05:05:11.278Z,59.90
2022-10-13T05:08:01.186Z,63.23
2022-10-13T05:11:02.821Z,65.15
2022-10-13T05:13:50.454Z,64.49
2022-10-13T05:16:38.092Z,61.86
2022-10-13T05:19:25.983Z,60.48
2022-10-13T05:22:13.927Z,57.92
2022-10-13T05:25:02.258Z,57.46
2022-10-13T05:27:50.176Z,59.22
2022-10-13T05:30:37.989Z,61.54
2022-10-13T05:33:25.991Z,65.55
2022-10-13T05:36:21.567Z,66.48
2022-10-13T05:39:13.291Z,64.61
2022-10-13T05:42:00.686Z,62.04
2022-10-13T05:44:48.555Z,60.46
2022-10-13T05:47:36.659Z,57.49
2022-10-13T05:50:25.019Z,57.12
2022-10-13T05:53:12.923Z,58.92
2022-10-13T05:56:08.671Z,60.34
2022-10-13T05:59:04.773Z,64.14
2022-10-13T06:01:52.961Z,65.47
2022-10-13T06:04:49.201Z,63.55
2022-10-13T06:07:37.033Z,61.36
2022-10-13T06:10:25.907Z,59.28
2022-10-13T06:13:13.533Z,56.51
2022-10-13T06:16:01.345Z,57.40
2022-10-13T06:18:49.331Z,59.15
2022-10-13T06:21:39.292Z,60.90
2022-10-13T06:24:27.035Z,64.98
2022-10-13T06:27:15.025Z,63.49
2022-10-13T06:30:03.430Z,61.94
2022-10-13T06:32:51.125Z,60.54
2022-10-13T06:35:38.911Z,56.55
2022-10-13T06:38:27.191Z,56.09
2022-10-13T06:41:15.279Z,58.54
2022-10-13T06:44:03.238Z,61.27
2022-10-13T06:46:51.140Z,64.15
2022-10-13T06:49:39.828Z,61.83
2022-10-13T06:52:31.566Z,60.86
2022-10-13T06:55:20.291Z,55.67
2022-10-13T06:58:08.088Z,52.97
2022-10-13T07:00:56.175Z,53.61
2022-10-13T07:03:43.896Z,49.51
2022-10-13T07:06:31.759Z,43.81
2022-10-13T07:09:20.528Z,43.83
2022-10-13T07:12:08.424Z,46.21
2022-10-13T07:14:55.743Z,38.69
2022-10-13T07:17:43.418Z,39.97
2022-10-13T07:20:31.347Z,40.88
2022-10-13T07:23:20.242Z,39.82
2022-10-13T07:26:14.658Z,39.47
2022-10-13T07:29:02.346Z,39.67
2022-10-13T07:31:50.167Z,39.14
2022-10-13T07:34:38.126Z,38.82
2022-10-13T07:37:26.477Z,33.90
2022-10-13T07:40:14.226Z,32.09
2022-10-13T07:43:02.957Z,34.07
2022-10-13T07:45:50.376Z,31.22
2022-10-13T07:48:41.297Z,32.39
2022-10-13T07:51:28.939Z,32.44
2022-10-13T07:54:21.594Z,33.36
2022-10-13T07:57:11.500Z,31.88
2022-10-13T07:59:59.258Z,29.11
2022-10-13T08:02:50.867Z,30.56
2022-10-13T08:05:39.377Z,30.40
2022-10-13T08:08:28.647Z,31.90
2022-10-13T08:11:17.699Z,32.03
2022-10-13T08:14:05.481Z,29.15
2022-10-13T08:16:53.810Z,29.45
2022-10-13T08:19:41.567Z,28.62
2022-10-13T08:22:29.728Z,29.98
2022-10-13T08:25:17.785Z,28.39
2022-10-13T08:28:17.452Z,29.35
2022-10-13T08:31:05.474Z,29.55
2022-10-13T08:33:53.329Z,29.43
2022-10-13T08:36:40.784Z,29.92
2022-10-13T08:39:29.465Z,29.19
2022-10-13T08:42:22.375Z,28.46
2022-10-13T08:45:40.293Z,28.21
2022-10-13T08:48:42.616Z,27.97
2022-10-13T08:51:30.444Z,27.11
2022-10-13T08:54:21.882Z,27.50
2022-10-13T08:57:11.142Z,28.22
2022-10-13T08:59:58.973Z,28.63
2022-10-13T09:02:47.181Z,27.75
2022-10-13T09:05:48.915Z,28.16
2022-10-13T09:08:48.894Z,28.11
2022-10-13T09:11:45.708Z,27.63
2022-10-13T09:14:40.415Z,28.13
2022-10-13T09:17:29.983Z,27.66
2022-10-13T09:20:29.192Z,28.04
2022-10-13T09:23:23.217Z,27.99
2022-10-13T09:26:22.285Z,28.29
2022-10-13T09:29:18.448Z,27.70
2022-10-13T09:32:26.287Z,27.69
2022-10-13T09:35:23.320Z,27.10
2022-10-13T09:38:15.222Z,27.62
2022-10-13T09:41:09.272Z,28.01
2022-10-13T09:44:11.421Z,28.05
2022-10-13T09:47:04.276Z,28.24
2022-10-13T09:50:25.156Z,28.00
2022-10-13T09:53:26.310Z,27.85
2022-10-13T09:56:28.970Z,27.07
2022-10-13T09:59:36.874Z,27.30
2022-10-13T10:02:34.856Z,26.29
2022-10-13T10:05:58.223Z,26.35
2022-10-13T10:09:23.558Z,26.66
2022-10-13T10:12:24.248Z,26.62
2022-10-13T10:15:26.348Z,25.48
2022-10-13T10:18:25.393Z,25.36
2022-10-13T10:22:33.793Z,23.70
2022-10-13T10:26:05.666Z,24.98
2022-10-13T10:29:17.156Z,24.77
2022-10-13T10:32:33.484Z,24.33
2022-10-13T10:35:44.519Z,24.40
2022-10-13T10:38:38.875Z,25.42
2022-10-13T10:41:45.049Z,25.81
2022-10-13T10:44:42.808Z,25.91
2022-10-13T10:47:42.122Z,26.49
2022-10-13T10:50:32.060Z,26.08
2022-10-13T10:53:57.395Z,25.75
2022-10-13T10:56:55.834Z,25.78
2022-10-13T11:00:05.086Z,24.91
2022-10-13T11:03:30.638Z,25.58
2022-10-13T11:06:32.346Z,25.75
2022-10-13T11:09:42.022Z,25.82
2022-10-13T11:12:53.132Z,26.06
2022-10-13T11:15:46.545Z,26.16
2022-10-13T11:19:06.182Z,25.93
2022-10-13T11:21:54.287Z,26.25
2022-10-13T11:24:42.113Z,27.09
2022-10-13T11:27:41.898Z,27.38
2022-10-13T11:30:48.350Z,28.00
2022-10-13T11:33:53.714Z,28.77
2022-10-13T11:36:51.871Z,29.07
2022-10-13T11:40:34.250Z,29.37
2022-10-13T11:43:27.644Z,29.75
2022-10-13T11:46:33.390Z,29.96
2022-10-13T11:49:42.499Z,30.06
2022-10-13T11:53:24.524Z,29.96
2022-10-13T11:56:54.758Z,29.89
2022-10-13T11:59:47.152Z,30.09
2022-10-13T12:02:34.619Z,30.14
2022-10-13T12:05:27.036Z,30.53
2022-10-13T12:08:15.906Z,31.38
2022-10-13T12:11:07.691Z,31.87
2022-10-13T12:13:57.010Z,32.42
2022-10-13T12:16:59.095Z,32.94
2022-10-13T12:19:46.510Z,33.67
2022-10-13T12:22:39.324Z,34.28
2022-10-13T12:25:33.773Z,34.86
2022-10-13T12:28:21.784Z,35.19
2022-10-13T12:31:38.319Z,35.90
2022-10-13T12:34:33.474Z,36.25
2022-10-13T12:37:34.130Z,36.95
2022-10-13T12:40:22.940Z,37.67
2022-10-13T12:43:25.251Z,38.70
2022-10-13T12:46:12.828Z,39.19
2022-10-13T12:49:12.562Z,40.12
2022-10-13T12:52:16.298Z,40.67
2022-10-13T12:55:04.605Z,41.33
2022-10-13T12:57:53.024Z,42.68
2022-10-13T13:00:41.336Z,42.96
2022-10-13T13:03:30.552Z,43.19
2022-10-13T13:06:17.987Z,43.92
2022-10-13T13:09:21.116Z,43.56
2022-10-13T13:12:11.666Z,44.38
2022-10-13T13:15:21.564Z,44.60
2022-10-13T13:18:27.558Z,44.89
2022-10-13T13:21:19.526Z,44.92
2022-10-13T13:24:16.256Z,45.02
2022-10-13T13:27:31.345Z,45.64
2022-10-13T13:30:23.247Z,45.68
2022-10-13T13:35:59.437Z,46.16
2022-10-13T13:38:48.663Z,46.29
2022-10-13T13:41:36.313Z,46.87
2022-10-13T13:44:24.421Z,47.21
2022-10-13T13:47:20.671Z,47.27
2022-10-13T13:50:25.348Z,46.98
2022-10-13T13:53:18.799Z,47.72
2022-10-13T13:56:17.326Z,48.13
2022-10-13T13:59:04.899Z,47.83
2022-10-13T14:01:52.557Z,48.46
2022-10-13T14:04:43.348Z,48.87
2022-10-13T14:07:31.643Z,48.70
2022-10-13T14:10:19.302Z,48.55
2022-10-13T14:13:06.973Z,48.59
2022-10-13T14:16:00.205Z,48.58
2022-10-13T14:18:47.827Z,49.07
2022-10-13T14:21:36.570Z,49.80
2022-10-13T14:24:25.366Z,50.03
2022-10-13T14:27:12.832Z,50.85
2022-10-13T14:30:01.638Z,51.48
2022-10-13T14:32:49.470Z,51.90
2022-10-13T14:35:37.474Z,52.25
2022-10-13T14:38:25.695Z,52.59
2022-10-13T14:41:15.294Z,52.81
2022-10-13T14:44:03.209Z,52.72
2022-10-13T14:46:51.161Z,52.48
2022-10-13T14:49:38.922Z,53.54
2022-10-13T14:52:27.035Z,53.10
2022-10-13T14:55:15.114Z,52.93
2022-10-13T14:58:03.749Z,53.58
2022-10-13T15:00:52.118Z,53.46
2022-10-13T15:03:39.995Z,53.49
2022-10-13T15:06:27.828Z,54.43
2022-10-13T15:09:15.198Z,54.50
2022-10-13T15:12:03.058Z,54.74
2022-10-13T15:14:51.387Z,54.60
2022-10-13T15:17:39.163Z,54.24
2022-10-13T15:20:26.812Z,54.57
2022-10-13T15:23:16.223Z,54.58
2022-10-13T15:26:04.788Z,55.33
2022-10-13T15:28:53.415Z,55.74
2022-10-13T15:31:40.977Z,55.80
2022-10-13T15:34:28.672Z,55.91
2022-10-13T15:37:16.341Z,56.54
2022-10-13T15:40:04.921Z,56.78
2022-10-13T15:42:54.195Z,56.16
2022-10-13T15:45:42.832Z,56.27
2022-10-13T15:48:39.588Z,57.00
2022-10-13T15:51:27.882Z,56.82
2022-10-13T15:54:17.189Z,57.52
2022-10-13T15:57:04.715Z,57.06
2022-10-13T15:59:53.717Z,57.39
2022-10-13T16:02:43.769Z,57.86
2022-10-13T16:05:32.032Z,57.44
2022-10-13T16:08:19.638Z,57.48
2022-10-13T16:11:13.983Z,57.30
2022-10-13T16:14:06.130Z,57.51
2022-10-13T16:16:58.518Z,57.15
2022-10-13T16:19:58.106Z,57.62
2022-10-13T16:22:50.378Z,57.76
2022-10-13T16:25:39.820Z,57.65
2022-10-13T16:28:27.605Z,57.74
2022-10-13T16:31:17.337Z,58.14
2022-10-13T16:34:07.963Z,58.48
2022-10-13T16:37:03.283Z,58.15
2022-10-13T16:39:53.969Z,59.81
2022-10-13T16:42:43.438Z,59.59
2022-10-13T16:45:55.057Z,58.81
2022-10-13T16:48:38.270Z,59.39
2022-10-13T16:51:28.918Z,59.69
2022-10-13T16:54:17.666Z,59.38
2022-10-13T16:57:05.371Z,59.36
2022-10-13T16:59:54.956Z,60.03
2022-10-13T17:02:46.974Z,59.89
2022-10-13T17:05:36.234Z,59.55
2022-10-13T17:08:24.741Z,59.86
2022-10-13T17:11:20.288Z,60.20
2022-10-13T17:14:09.424Z,60.03
2022-10-13T17:16:58.171Z,60.35
2022-10-13T17:19:46.003Z,59.90
2022-10-13T17:22:34.147Z,59.61
2022-10-13T17:25:21.906Z,60.02
2022-10-13T17:28:09.825Z,60.55
2022-10-13T17:31:09.535Z,61.11
2022-10-13T17:33:57.768Z,61.23
2022-10-13T17:36:52.341Z,61.11
2022-10-13T17:43:00.576Z,61.15
2022-10-13T17:45:48.155Z,60.99
2022-10-13T17:48:36.150Z,61.21
2022-10-13T17:51:34.738Z,61.00
2022-10-13T17:54:26.177Z,60.51
2022-10-13T17:57:24.958Z,61.37
2022-10-13T18:00:14.012Z,62.69
2022-10-13T18:03:02.591Z,59.14
2022-10-13T18:05:55.343Z,55.89
2022-10-13T18:08:43.737Z,56.50
2022-10-13T18:11:58.079Z,57.24
2022-10-13T18:14:46.198Z,58.65
2022-10-13T18:17:33.893Z,59.15
2022-10-13T18:20:21.994Z,59.82
2022-10-13T18:23:12.688Z,60.35
2022-10-13T18:26:21.605Z,60.85
2022-10-13T18:29:12.322Z,63.02
2022-10-13T18:31:59.749Z,58.36
2022-10-13T18:34:47.400Z,58.11
2022-10-13T18:37:37.179Z,58.40
2022-10-13T18:40:50.663Z,59.26
2022-10-13T18:43:38.194Z,60.66
2022-10-13T18:46:26.275Z,62.29
2022-10-13T18:49:15.391Z,60.02
2022-10-13T18:52:05.004Z,57.48
2022-10-13T18:54:54.870Z,58.17
2022-10-13T18:57:43.027Z,59.54
2022-10-13T19:00:30.911Z,59.98
2022-10-13T19:03:18.818Z,60.69
2022-10-13T19:06:10.018Z,61.26
2022-10-13T19:09:06.771Z,62.07
2022-10-13T19:12:00.924Z,61.38
2022-10-13T19:14:49.397Z,56.61
2022-10-13T19:17:37.832Z,57.05
2022-10-13T19:20:35.822Z,58.16
2022-10-13T19:23:27.932Z,58.65
2022-10-13T19:26:24.057Z,60.35
2022-10-13T19:29:14.041Z,61.32
2022-10-13T19:32:01.965Z,62.61
2022-10-13T19:34:49.965Z,60.23
2022-10-13T19:37:39.188Z,58.06
2022-10-13T19:40:33.021Z,58.48
2022-10-13T19:43:22.542Z,59.96
2022-10-13T19:46:10.959Z,60.01
2022-10-13T19:48:58.476Z,61.62
2022-10-13T19:51:49.348Z,62.57
2022-10-13T19:54:37.282Z,60.24
2022-10-13T19:57:25.140Z,58.05
2022-10-13T20:00:14.210Z,58.56
2022-10-13T20:03:03.937Z,59.94
2022-10-13T20:05:51.552Z,60.67
2022-10-13T20:08:39.591Z,61.68
2022-10-13T20:11:26.955Z,63.60
2022-10-13T20:14:15.546Z,64.17
2022-10-13T20:17:03.058Z,60.72
2022-10-13T20:19:50.869Z,56.93
2022-10-13T20:22:39.855Z,57.14
2022-10-13T20:25:27.713Z,58.36
2022-10-13T20:28:15.562Z,59.16
2022-10-13T20:31:05.273Z,60.52
2022-10-13T20:33:58.552Z,61.04
2022-10-13T20:36:51.437Z,62.09
2022-10-13T20:39:39.770Z,64.39
2022-10-13T20:42:27.714Z,64.90
2022-10-13T20:45:15.551Z,60.57
2022-10-13T20:48:03.585Z,57.21
2022-10-13T20:50:51.772Z,58.17
2022-10-13T20:53:43.010Z,59.48
2022-10-13T20:56:30.730Z,61.08
2022-10-13T20:59:18.701Z,61.81
2022-10-13T21:02:06.697Z,62.77
2022-10-13T21:04:54.653Z,60.34
2022-10-13T21:07:42.640Z,59.03
2022-10-13T21:10:30.062Z,57.99
2022-10-13T21:13:18.335Z,59.59
2022-10-13T21:16:14.811Z,60.50
2022-10-13T21:19:03.131Z,61.28
2022-10-13T21:21:50.998Z,62.79
2022-10-13T21:24:39.148Z,64.19
2022-10-13T21:27:26.763Z,59.82
2022-10-13T21:30:14.418Z,57.47
2022-10-13T21:33:02.271Z,58.31
2022-10-13T21:35:50.083Z,59.49
2022-10-13T21:38:39.924Z,60.87
2022-10-13T21:41:28.914Z,61.28
2022-10-13T21:44:17.159Z,63.00
2022-10-13T21:47:04.887Z,62.96
2022-10-13T21:49:53.596Z,59.40
2022-10-13T21:52:41.397Z,57.80
2022-10-13T21:55:29.260Z,58.78
2022-10-13T21:58:17.019Z,59.54
2022-10-13T22:01:06.093Z,60.38
2022-10-13T22:03:56.805Z,61.15
2022-10-13T22:06:47.047Z,62.47
2022-10-13T22:09:34.437Z,64.45
2022-10-13T22:12:22.569Z,62.67
2022-10-13T22:15:41.515Z,57.82
2022-10-13T22:18:32.881Z,56.82
2022-10-13T22:21:29.093Z,58.52
2022-10-13T22:24:21.416Z,59.64
2022-10-13T22:27:12.916Z,60.23
2022-10-13T22:30:01.617Z,61.17
2022-10-13T22:32:49.155Z,64.23
2022-10-13T22:35:46.911Z,67.00
2022-10-13T22:38:35.122Z,65.16
2022-10-13T22:41:24.772Z,62.09
2022-10-13T22:44:13.533Z,57.06
2022-10-13T22:47:00.970Z,55.72
2022-10-13T22:49:48.257Z,56.16
2022-10-13T22:52:37.492Z,57.40
2022-10-13T22:55:24.809Z,59.63
2022-10-13T22:58:12.821Z,59.99
2022-10-13T23:01:09.538Z,61.20
2022-10-13T23:03:58.434Z,64.87
2022-10-13T23:06:45.966Z,65.76
2022-10-13T23:09:35.764Z,60.70
2022-10-13T23:12:22.958Z,56.70
2022-10-13T23:15:11.232Z,57.53
2022-10-13T23:18:01.332Z,59.64
2022-10-13T23:20:52.013Z,60.85
2022-10-13T23:23:42.562Z,62.26
2022-10-13T23:26:32.461Z,63.81
2022-10-13T23:29:19.538Z,61.05
2022-10-13T23:32:09.762Z,58.23
2022-10-13T23:34:57.770Z,58.41
2022-10-13T23:37:52.945Z,58.98
2022-10-13T23:40:40.637Z,60.16
2022-10-13T23:43:30.898Z,62.42
2022-10-13T23:46:18.526Z,63.83
2022-10-13T23:49:06.158Z,62.24
2022-10-13T23:51:53.972Z,57.47
2022-10-13T23:54:42.002Z,56.99
2022-10-13T23:57:30.519Z,58.14
